Time;durP1;ratioP1;P1;durP2;ratioP2;P2;SDS_P1;SDS_P2;PMS_P1;PMS_P2;Temp;Humidity;BMP_temperature;BMP_pressure;BME280_temperature;BME280_humidity;BME280_pressure;Samples;Min_cycle;Max_cycle;Signal;HPM_P1;HPM_P2
2022/09/08 00:03:12;;;;;;;;;;;21.80;44.30;;;19.32;46.00;100682.44;12256373;19;19932;-89
2022/09/08 00:07:14;;;;;;;;;;;21.50;44.10;;;19.63;46.13;100735.19;12258684;19;19923;-90
2022/09/08 00:11:19;;;;;;;;;;;21.50;44.70;;;19.37;46.41;100711.16;12258372;19;19931;-90
2022/09/08 00:15:20;;;;;;;;;;;21.40;44.10;;;19.33;46.46;100699.97;12257544;19;19919;-90
2022/09/08 00:19:22;;;;;;;;;;;21.30;44.10;;;19.26;46.52;100700.72;12257128;19;19923;-89
2022/09/08 00:23:23;;;;;;;;;;;21.50;44.30;;;19.49;46.47;100738.31;12254794;19;19943;-90
2022/09/08 00:27:25;;;;;;;;;;;21.60;44.10;;;19.39;46.48;100740.97;12256424;19;19915;-89
2022/09/08 00:31:27;;;;;;;;;;;21.20;44.40;;;19.10;46.39;100701.28;12254264;19;19919;-89
2022/09/08 00:35:28;;;;;;;;;;;21.20;44.30;;;19.28;46.67;100731.38;12256593;19;19961;-89
2022/09/08 00:39:30;;;;;;;;;;;21.10;44.20;;;19.23;46.63;100731.78;12256674;19;19982;-89
2022/09/08 00:43:37;;;;;;;;;;;21.10;44.20;;;19.33;46.47;100754.75;12254334;19;20266;-89
2022/09/08 00:47:44;;;;;;;;;;;21.10;44.30;;;18.87;46.68;100684.84;12257430;19;19953;-89
2022/09/08 00:51:49;;;;;;;;;;;21.00;44.30;;;19.09;46.49;100712.84;12254776;19;19922;-89
2022/09/08 00:55:51;;;;;;;;;;;20.90;43.90;;;19.06;46.62;100707.81;12254480;19;19938;-89
2022/09/08 00:59:53;;;;;;;;;;;21.10;44.20;;;18.88;46.53;100687.38;12254278;19;20365;-89
2022/09/08 01:03:55;;;;;;;;;;;20.90;44.40;;;18.58;46.71;100660.03;12252814;19;19931;-89
2022/09/08 01:12:55;;;;;;;;;;;20.80;44.30;;;18.85;46.93;100710.59;12247298;19;19939;-89
2022/09/08 01:17:09;;;;;;;;;;;20.70;44.20;;;18.74;46.94;100700.97;12252577;19;19937;-89
2022/09/08 01:21:30;;;;;;;;;;;20.80;44.20;;;18.82;46.71;100709.06;12253266;19;19986;-90
2022/09/08 01:25:48;;;;;;;;;;;20.60;44.10;;;18.74;46.93;100706.25;12251786;19;19906;-89
2022/09/08 01:29:54;;;;;;;;;;;20.60;43.90;;;18.68;46.98;100706.81;12256266;19;20346;-89
2022/09/08 01:33:57;;;;;;;;;;;20.50;44.00;;;18.70;47.08;100704.88;12251313;19;19915;-89
2022/09/08 01:37:59;;;;;;;;;;;20.40;44.00;;;18.69;47.11;100719.09;12252669;19;20369;-89
2022/09/08 01:42:00;;;;;;;;;;;20.50;44.00;;;18.64;46.77;100726.59;12250917;19;19945;-89
2022/09/08 01:46:02;;;;;;;;;;;20.40;43.90;;;18.51;46.84;100714.44;12250759;19;19967;-90
2022/09/08 01:50:04;;;;;;;;;;;20.40;44.00;;;18.27;47.07;100683.06;12251187;19;19952;-88
2022/09/08 01:54:05;;;;;;;;;;;20.40;44.20;;;18.64;46.89;100724.78;12245134;19;20246;-89
2022/09/08 01:58:06;;;;;;;;;;;20.70;44.40;;;18.51;47.00;100705.69;12251794;19;19923;-88
2022/09/08 02:02:08;;;;;;;;;;;20.50;44.40;;;18.60;47.14;100728.66;12249169;19;19931;-90
2022/09/08 02:06:10;;;;;;;;;;;20.40;44.30;;;18.43;46.82;100703.72;12248762;19;19919;-91
2022/09/08 02:10:11;;;;;;;;;;;20.30;44.50;;;18.30;46.97;100682.81;12251122;19;19915;-89
2022/09/08 02:14:13;;;;;;;;;;;20.50;44.50;;;18.12;47.19;100680.00;12250168;19;20346;-88
2022/09/08 02:18:15;;;;;;;;;;;20.20;44.30;;;18.33;47.25;100724.00;12254533;19;19915;-89
2022/09/08 02:22:16;;;;;;;;;;;20.30;44.20;;;18.07;47.30;100676.09;12253480;19;19915;-89
2022/09/08 02:26:19;;;;;;;;;;;20.10;44.10;;;17.68;47.11;100623.06;12257624;19;19915;-88
2022/09/08 02:30:22;;;;;;;;;;;20.10;44.20;;;18.05;47.25;100670.09;12265083;19;19914;-88
2022/09/08 02:34:23;;;;;;;;;;;20.20;44.30;;;18.05;47.36;100657.72;12262855;19;20326;-89
2022/09/08 02:38:25;;;;;;;;;;;20.20;44.80;;;17.86;47.25;100647.06;12264429;19;19943;-88
2022/09/08 02:42:27;;;;;;;;;;;20.00;44.60;;;17.71;47.56;100628.06;12259185;19;20003;-89
2022/09/08 02:46:28;;;;;;;;;;;19.90;44.40;;;17.87;47.49;100656.66;12262712;19;19926;-89
2022/09/08 02:50:30;;;;;;;;;;;20.00;44.30;;;17.93;47.49;100664.06;12261875;19;20246;-89
2022/09/08 02:54:31;;;;;;;;;;;19.80;44.30;;;17.72;47.37;100626.28;12261206;19;19911;-89
2022/09/08 02:58:34;;;;;;;;;;;19.70;43.70;;;17.95;47.32;100664.75;12262418;19;19910;-89
2022/09/08 03:02:36;;;;;;;;;;;19.80;43.70;;;17.80;47.63;100639.69;12259394;19;20318;-89
2022/09/08 03:06:37;;;;;;;;;;;20.10;43.70;;;17.87;47.27;100651.38;12261937;19;19922;-88
2022/09/08 03:10:39;;;;;;;;;;;19.70;43.90;;;17.85;47.44;100651.53;12262472;19;19918;-89
2022/09/08 03:14:40;;;;;;;;;;;19.70;43.80;;;18.01;47.52;100682.75;12260350;19;19926;-89
2022/09/08 03:18:42;;;;;;;;;;;19.70;43.80;;;17.86;47.61;100655.00;12263263;19;19918;-89
2022/09/08 03:22:44;;;;;;;;;;;19.70;44.00;;;17.99;47.22;100662.69;12258159;19;19944;-89
2022/09/08 03:26:45;;;;;;;;;;;19.80;43.60;;;17.94;47.56;100655.16;12263890;19;19991;-88
2022/09/08 03:30:46;;;;;;;;;;;19.70;43.90;;;17.97;47.27;100660.19;12258178;19;19915;-89
2022/09/08 03:34:48;;;;;;;;;;;19.70;44.10;;;17.89;47.36;100657.38;12260351;19;19919;-90
2022/09/08 03:38:49;;;;;;;;;;;19.70;44.10;;;17.87;47.50;100669.88;12260882;19;20255;-89
2022/09/08 03:42:51;;;;;;;;;;;19.70;44.20;;;17.65;47.39;100632.09;12258565;19;19919;-89
2022/09/08 03:46:53;;;;;;;;;;;19.60;44.20;;;17.73;47.48;100662.28;12261247;19;19919;-89
2022/09/08 03:50:55;;;;;;;;;;;19.60;44.20;;;17.79;47.77;100664.41;12259761;19;19918;-89
2022/09/08 03:54:57;;;;;;;;;;;19.60;44.20;;;17.63;47.57;100636.69;12259364;19;20346;-89
2022/09/08 03:58:59;;;;;;;;;;;19.50;44.30;;;17.51;47.82;100606.03;12255948;19;19913;-89
2022/09/08 04:03:00;;;;;;;;;;;19.90;44.60;;;17.67;47.73;100642.53;12252306;19;20253;-89
2022/09/08 04:07:02;;;;;;;;;;;19.50;44.30;;;17.56;47.82;100642.63;12256652;19;19923;-89
2022/09/08 04:11:05;;;;;;;;;;;19.40;43.90;;;17.36;47.77;100610.00;12254610;19;19926;-89
2022/09/08 04:15:09;;;;;;;;;;;19.40;43.80;;;17.50;47.61;100633.44;12256519;19;20283;-88
2022/09/08 04:19:11;;;;;;;;;;;19.40;43.90;;;17.36;47.78;100613.50;12258866;19;19919;-88
2022/09/08 04:23:12;;;;;;;;;;;19.30;44.10;;;17.44;47.63;100632.16;12255407;19;19928;-90
2022/09/08 04:27:15;;;;;;;;;;;19.30;44.20;;;17.27;47.57;100613.44;12258168;19;19911;-90
2022/09/08 04:31:17;;;;;;;;;;;19.50;43.90;;;17.23;47.68;100616.34;12256739;19;20397;-91
2022/09/08 04:35:19;;;;;;;;;;;19.20;43.80;;;17.17;47.69;100601.00;12254255;19;19907;-90
2022/09/08 04:39:20;;;;;;;;;;;19.10;43.70;;;17.06;47.65;100579.97;12252613;19;19925;-89
2022/09/08 04:43:22;;;;;;;;;;;19.30;43.90;;;17.28;47.79;100623.00;12251227;19;19946;-89
2022/09/08 04:47:23;;;;;;;;;;;19.10;44.00;;;17.19;47.90;100620.19;12246071;19;19982;-90
2022/09/08 04:51:26;;;;;;;;;;;19.10;43.80;;;17.05;47.84;100588.03;12247791;19;19946;-90
2022/09/08 04:55:28;;;;;;;;;;;19.00;43.80;;;16.53;47.89;100514.94;12252242;19;20330;-90
2022/09/08 04:59:29;;;;;;;;;;;19.00;44.00;;;17.15;47.96;100616.16;12251722;19;19960;-89
2022/09/08 05:03:31;;;;;;;;;;;19.00;43.70;;;17.18;47.66;100609.78;12246227;19;20546;-90
2022/09/08 05:07:33;;;;;;;;;;;19.00;43.60;;;17.24;47.74;100620.63;12252608;19;19919;-88
2022/09/08 05:11:34;;;;;;;;;;;19.00;43.60;;;17.25;47.74;100617.03;12250262;19;20257;-88
2022/09/08 05:15:36;;;;;;;;;;;19.00;43.70;;;17.27;47.67;100605.50;12250862;19;19926;-87
2022/09/08 05:19:37;;;;;;;;;;;19.10;43.70;;;17.30;47.93;100605.25;12251859;19;20337;-88
2022/09/08 05:23:39;;;;;;;;;;;19.10;43.70;;;16.93;47.68;100551.19;12245041;19;19929;-89
2022/09/08 05:27:41;;;;;;;;;;;19.10;43.60;;;17.33;47.98;100615.53;12250644;19;19923;-89
2022/09/08 05:31:43;;;;;;;;;;;19.10;43.40;;;17.42;47.90;100628.78;12249360;19;19954;-89
2022/09/08 05:35:44;;;;;;;;;;;19.10;43.40;;;17.50;47.64;100636.06;12249457;19;19907;-88
2022/09/08 05:39:46;;;;;;;;;;;19.50;43.70;;;17.57;47.66;100633.72;12254302;19;19910;-88
2022/09/08 05:43:51;;;;;;;;;;;19.20;43.70;;;17.54;47.59;100621.63;12250135;19;19911;-89
2022/09/08 05:47:53;;;;;;;;;;;19.50;43.90;;;17.51;47.90;100599.94;12249310;19;19911;-89
2022/09/08 05:51:54;;;;;;;;;;;19.60;43.70;;;17.63;47.80;100610.28;12251303;19;19915;-87
2022/09/08 05:56:04;;;;;;;;;;;19.40;43.40;;;17.67;47.64;100597.63;12246796;19;19926;-89
2022/09/08 06:00:07;;;;;;;;;;;19.40;43.50;;;17.55;47.73;100561.72;12246915;19;19919;-90
2022/09/08 06:04:14;;;;;;;;;;;19.50;43.40;;;17.70;47.69;100574.41;12245554;19;19923;-88
2022/09/08 06:08:16;;;;;;;;;;;19.60;43.40;;;17.31;47.78;100506.59;12247842;19;20257;-88
2022/09/08 06:12:18;;;;;;;;;;;19.60;43.50;;;17.91;47.55;100600.78;12248182;19;19952;-89
2022/09/08 06:16:20;;;;;;;;;;;19.60;43.40;;;17.85;47.80;100577.56;12248838;19;19926;-88
2022/09/08 06:20:22;;;;;;;;;;;19.70;43.50;;;17.70;47.60;100549.81;12249345;19;19926;-89
2022/09/08 06:24:24;;;;;;;;;;;20.10;43.70;;;17.97;47.52;100596.78;12246074;19;19930;-88
2022/09/08 06:28:41;;;;;;;;;;;19.80;43.50;;;18.13;47.70;100610.28;12247454;19;20258;-88
2022/09/08 06:32:59;;;;;;;;;;;19.90;43.30;;;18.27;47.66;100619.63;12244419;19;19943;-89
2022/09/08 06:37:07;;;;;;;;;;;19.90;43.30;;;17.98;47.64;100550.03;12251682;19;19982;-89
2022/09/08 06:41:15;;;;;;;;;;;19.90;43.20;;;18.23;47.40;100578.59;12244471;19;20346;-89
2022/09/08 06:45:24;;;;;;;;;;;20.00;43.30;;;18.33;47.69;100591.81;12245290;19;19982;-89
2022/09/08 06:49:29;;;;;;;;;;;20.30;43.50;;;18.33;47.79;100582.09;12252146;19;19922;-90
2022/09/08 06:53:34;;;;;;;;;;;20.20;43.30;;;18.35;47.40;100572.19;12247390;19;19906;-89
2022/09/08 06:57:55;;;;;;;;;;;20.40;43.40;;;18.34;47.66;100559.97;12247256;19;19934;-89
2022/09/08 07:02:07;;;;;;;;;;;20.30;43.50;;;18.21;47.50;100522.38;12245657;19;20010;-88
2022/09/08 07:06:09;;;;;;;;;;;20.30;43.30;;;18.34;47.52;100522.13;12244910;19;19959;-89
2022/09/08 07:10:21;;;;;;;;;;;20.40;43.30;;;18.84;47.44;100590.72;12254759;19;19926;-89
2022/09/08 07:14:45;;;;;;;;;;;20.50;43.30;;;18.60;47.27;100542.66;12261608;19;19933;-90
2022/09/08 07:18:59;;;;;;;;;;;20.60;43.30;;;18.67;47.27;100552.56;12264679;19;20283;-89
2022/09/08 07:23:16;;;;;;;;;;;20.60;43.50;;;18.96;47.51;100570.22;12260422;19;19915;-89
2022/09/08 07:27:18;;;;;;;;;;;20.70;43.50;;;19.03;47.62;100552.78;12263792;19;19922;-89
2022/09/08 07:31:22;;;;;;;;;;;20.70;43.30;;;19.16;47.43;100565.72;12258218;19;19971;-88
2022/09/08 07:35:47;;;;;;;;;;;20.80;43.40;;;19.17;47.48;100557.63;12265737;19;19919;-88
2022/09/08 07:40:00;;;;;;;;;;;20.80;43.30;;;18.93;47.23;100513.13;12265108;19;19911;-88
2022/09/08 07:44:09;;;;;;;;;;;20.90;43.30;;;19.21;47.57;100544.94;12261622;19;19950;-89
2022/09/08 07:48:20;;;;;;;;;;;20.90;43.30;;;19.51;47.40;100580.06;12266880;19;19942;-89
2022/09/08 07:52:53;;;;;;;;;;;21.10;43.50;;;19.65;47.38;100596.31;12260904;19;19970;-88
2022/09/08 07:57:06;;;;;;;;;;;21.20;43.50;;;19.21;47.19;100535.16;12265085;19;19911;-89
2022/09/08 08:01:31;;;;;;;;;;;21.30;43.50;;;19.85;47.56;100602.38;12264649;19;19978;-89
2022/09/08 08:05:40;;;;;;;;;;;21.40;43.40;;;19.51;47.17;100524.44;12258858;19;20539;-88
2022/09/08 08:10:09;;;;;;;;;;;21.60;43.60;;;20.04;47.12;100601.44;12256585;19;19926;-88
2022/09/08 08:14:14;;;;;;;;;;;21.60;43.50;;;20.11;47.24;100591.06;12246257;19;19919;-88
2022/09/08 08:18:51;;;;;;;;;;;21.70;43.30;;;19.44;47.30;100465.94;12254036;19;19915;-88
2022/09/08 08:23:00;;;;;;;;;;;21.80;43.50;;;20.28;47.25;100597.34;12250089;19;19922;-87
2022/09/08 08:27:12;;;;;;;;;;;21.80;43.40;;;20.21;47.31;100565.31;12255370;19;19925;-88
2022/09/08 08:31:43;;;;;;;;;;;21.80;43.40;;;19.83;47.19;100490.41;12254875;19;19927;-87
2022/09/08 08:36:00;;;;;;;;;;;22.00;43.50;;;20.52;47.24;100589.66;12257043;19;19927;-88
2022/09/08 08:40:14;;;;;;;;;;;22.10;43.50;;;20.15;47.25;100512.91;12255469;19;19918;-89
2022/09/08 08:44:39;;;;;;;;;;;22.20;43.50;;;20.65;47.03;100569.88;12252620;19;20341;-88
2022/09/08 08:49:07;;;;;;;;;;;22.30;43.40;;;20.24;47.33;100490.75;12257280;19;19922;-87
2022/09/08 08:53:30;;;;;;;;;;;22.50;43.50;;;20.80;47.05;100562.19;12252452;19;19925;-89
2022/09/08 08:57:55;;;;;;;;;;;22.30;43.40;;;20.39;47.37;100476.94;12261158;19;20350;-88
2022/09/08 09:02:12;;;;;;;;;;;22.40;43.40;;;20.50;47.13;100471.41;12260576;19;20574;-88
2022/09/08 09:06:41;;;;;;;;;;;22.80;43.70;;;21.01;47.25;100541.44;12258555;19;20296;-88
2022/09/08 09:10:53;;;;;;;;;;;22.60;43.50;;;20.79;46.86;100489.69;12256898;19;20277;-89
2022/09/08 09:15:33;;;;;;;;;;;22.70;43.50;;;21.13;47.16;100524.22;12256005;19;19931;-89
2022/09/08 09:19:42;;;;;;;;;;;22.70;43.40;;;21.05;47.10;100500.28;12250434;19;20355;-88
2022/09/08 09:23:49;;;;;;;;;;;22.70;43.40;;;21.29;47.11;100525.31;12251762;19;19929;-89
2022/09/08 09:28:12;;;;;;;;;;;22.90;43.50;;;21.36;47.27;100519.19;12254524;19;19922;-89
2022/09/08 09:32:25;;;;;;;;;;;23.00;43.50;;;21.43;46.94;100519.41;12252217;19;20277;-89
2022/09/08 09:37:08;;;;;;;;;;;23.00;43.50;;;21.52;46.97;100514.94;12254992;19;19926;-88
2022/09/08 09:41:41;;;;;;;;;;;23.10;43.60;;;21.56;47.14;100503.84;12254955;19;19919;-88
2022/09/08 09:46:20;;;;;;;;;;;23.10;43.60;;;21.51;47.22;100478.75;12253158;19;19926;-88
2022/09/08 09:50:33;;;;;;;;;;;23.20;43.60;;;21.56;47.29;100476.44;12253370;19;20550;-89
2022/09/08 09:55:12;;;;;;;;;;;23.20;43.40;;;21.52;47.09;100467.13;12252338;19;20244;-89
2022/09/08 09:59:26;;;;;;;;;;;23.30;43.40;;;21.67;47.11;100501.88;12254298;19;19975;-89
2022/09/08 10:03:33;;;;;;;;;;;23.30;43.40;;;21.65;47.21;100491.41;12249315;19;19959;-89
2022/09/08 10:08:09;;;;;;;;;;;23.30;43.40;;;21.69;47.05;100490.09;12253027;19;19915;-88
2022/09/08 10:12:49;;;;;;;;;;;23.30;43.40;;;21.76;47.24;100492.91;12251024;19;20368;-88
2022/09/08 10:17:03;;;;;;;;;;;23.40;43.60;;;21.78;46.87;100490.94;12252606;19;19922;-88
2022/09/08 10:21:38;;;;;;;;;;;23.40;43.50;;;21.69;47.04;100499.91;12250346;19;19922;-87
2022/09/08 10:26:01;;;;;;;;;;;23.40;43.60;;;21.84;47.25;100524.84;12248627;19;19922;-88
2022/09/08 10:30:10;;;;;;;;;;;23.50;43.60;;;;;;12254881;19;20357;-88
2022/09/08 10:34:30;;;;;;;;;;;23.50;43.80;;;;;;12249539;19;20348;-87
2022/09/08 10:39:03;;;;;;;;;;;23.50;44.00;;;21.79;46.88;100540.44;12253967;19;20377;-87
2022/09/08 10:43:42;;;;;;;;;;;23.50;44.30;;;21.76;46.92;100544.25;12254112;19;19982;-88
2022/09/08 10:47:53;;;;;;;;;;;23.50;44.40;;;21.71;47.19;100545.72;12265542;19;19933;-89
2022/09/08 10:52:30;;;;;;;;;;;23.50;44.50;;;21.50;47.34;100507.16;12265216;19;20249;-87
2022/09/08 10:56:31;;;;;;;;;;;23.40;44.70;;;21.40;47.63;100514.41;12251497;19;19923;-88
2022/09/08 11:00:51;;;;;;;;;;;23.30;44.80;;;21.44;47.47;100531.69;12256268;19;19923;-87
2022/09/08 11:05:26;;;;;;;;;;;23.20;45.10;;;21.39;47.40;100529.53;12259612;19;19961;-87
2022/09/08 11:09:50;;;;;;;;;;;23.10;44.50;;;21.15;47.90;100518.75;12261987;19;19939;-86
2022/09/08 11:13:59;;;;;;;;;;;23.00;44.80;;;21.14;47.98;100539.19;12257900;19;19915;-86
2022/09/08 11:18:36;;;;;;;;;;;22.90;45.40;;;21.10;48.10;100532.50;12262900;19;19986;-86
2022/09/08 11:23:02;;;;;;;;;;;22.80;45.50;;;21.06;48.06;100544.41;12258139;19;19911;-86
2022/09/08 11:27:19;;;;;;;;;;;22.80;45.70;;;21.03;48.13;100522.66;12260170;19;19930;-86
2022/09/08 11:31:46;;;;;;;;;;;22.70;45.70;;;20.94;47.95;100509.34;12261579;19;19988;-86
2022/09/08 11:36:05;;;;;;;;;;;22.70;45.90;;;21.01;48.09;100520.19;12261327;19;19914;-87
2022/09/08 11:40:22;;;;;;;;;;;22.70;46.30;;;21.04;47.98;100516.38;12260509;19;19924;-87
2022/09/08 11:45:00;;;;;;;;;;;22.70;46.10;;;21.06;48.13;100512.56;12259168;19;19911;-87
2022/09/08 11:49:42;;;;;;;;;;;22.70;46.30;;;21.08;48.34;100513.25;12261338;19;19928;-86
2022/09/08 11:53:49;;;;;;;;;;;22.70;46.00;;;21.01;48.16;100504.25;12257079;19;19915;-85
2022/09/08 11:57:59;;;;;;;;;;;22.70;46.30;;;21.10;48.29;100499.81;12261131;19;19923;-86
2022/09/08 12:02:39;;;;;;;;;;;22.70;46.50;;;21.13;48.50;100494.19;12259842;19;19914;-87
2022/09/08 12:07:12;;;;;;;;;;;22.70;46.40;;;21.17;48.28;100488.41;12260123;19;19910;-87
2022/09/08 12:11:51;;;;;;;;;;;22.70;46.60;;;21.23;48.62;100475.47;12259164;19;19919;-87
2022/09/08 12:16:16;;;;;;;;;;;22.80;46.60;;;21.08;48.94;100457.47;12269474;19;19914;-87
2022/09/08 12:20:22;;;;;;;;;;;22.80;46.60;;;21.20;48.46;100477.47;12265167;19;19929;-87
2022/09/08 12:25:01;;;;;;;;;;;22.80;46.70;;;21.21;48.62;100459.69;12263614;19;19914;-87
2022/09/08 12:29:33;;;;;;;;;;;22.80;46.80;;;21.17;48.59;100453.88;12265488;19;19942;-87
2022/09/08 12:33:51;;;;;;;;;;;22.80;46.80;;;21.17;48.69;100445.91;12260988;19;19970;-88
2022/09/08 12:38:05;;;;;;;;;;;22.80;46.60;;;21.19;48.49;100443.91;12260089;19;19933;-88
2022/09/08 12:42:48;;;;;;;;;;;22.80;46.80;;;21.21;48.84;100449.91;12259750;19;19914;-87
2022/09/08 12:47:00;;;;;;;;;;;22.80;46.50;;;21.21;48.68;100441.94;12260710;19;19974;-87
2022/09/08 12:51:21;;;;;;;;;;;22.80;47.00;;;21.13;49.00;100428.63;12261202;19;19914;-87
2022/09/08 12:55:39;;;;;;;;;;;22.80;47.00;;;21.13;49.05;100420.66;12258300;19;20341;-87
2022/09/08 12:59:54;;;;;;;;;;;22.80;46.70;;;21.22;49.11;100429.47;12257570;19;19910;-86
2022/09/08 13:03:59;;;;;;;;;;;22.80;47.00;;;21.22;48.91;100424.16;12252863;19;19922;-87
2022/09/08 13:08:09;;;;;;;;;;;22.90;46.80;;;20.65;49.05;100323.91;12254433;19;19922;-87
2022/09/08 13:12:20;;;;;;;;;;;22.80;47.20;;;21.20;48.93;100421.69;12252909;19;19923;-86
2022/09/08 13:16:45;;;;;;;;;;;22.80;47.30;;;21.20;49.09;100423.50;12256277;19;19985;-86
2022/09/08 13:21:11;;;;;;;;;;;22.80;47.30;;;21.15;49.12;100424.00;12252709;19;19915;-87
2022/09/08 13:25:22;;;;;;;;;;;22.80;47.20;;;21.20;49.50;100428.81;12253560;19;19914;-87
2022/09/08 13:29:52;;;;;;;;;;;22.80;47.30;;;21.19;49.32;100414.69;12255221;19;19919;-86
2022/09/08 13:33:56;;;;;;;;;;;22.80;47.30;;;21.19;49.16;100417.34;12251189;19;19915;-86
2022/09/08 13:38:07;;;;;;;;;;;22.80;47.70;;;21.21;49.52;100415.38;12255188;19;19947;-87
2022/09/08 13:42:14;;;;;;;;;;;22.80;47.70;;;21.25;49.23;100420.34;12252941;19;20318;-87
2022/09/08 13:46:36;;;;;;;;;;;22.80;47.70;;;21.27;49.33;100424.50;12246878;19;19930;-87
2022/09/08 13:51:10;;;;;;;;;;;22.80;47.70;;;21.32;49.43;100416.06;12251488;19;19919;-85
2022/09/08 13:55:39;;;;;;;;;;;22.90;47.60;;;21.33;49.58;100428.34;12251037;19;19918;-85
2022/09/08 13:59:59;;;;;;;;;;;22.90;47.70;;;21.33;49.49;100415.06;12250300;19;19918;-85
2022/09/08 14:04:40;;;;;;;;;;;22.90;47.70;;;21.09;49.68;100379.50;12248411;19;19978;-86
2022/09/08 14:09:00;;;;;;;;;;;22.90;47.80;;;21.29;49.67;100432.34;12252531;19;19919;-86
2022/09/08 14:13:10;;;;;;;;;;;23.00;48.00;;;21.27;49.54;100415.72;12250396;19;19919;-86
2022/09/08 14:17:40;;;;;;;;;;;22.90;47.30;;;21.19;49.87;100411.22;12250044;19;19911;-86
2022/09/08 14:21:58;;;;;;;;;;;22.90;47.30;;;21.14;50.02;100424.13;12259985;19;19922;-85
2022/09/08 14:26:18;;;;;;;;;;;22.80;47.60;;;21.13;49.62;100422.47;12258712;19;19927;-85
2022/09/08 14:30:23;;;;;;;;;;;22.80;47.70;;;20.68;50.08;100349.31;12261705;19;19926;-86
2022/09/08 14:34:34;;;;;;;;;;;22.50;47.90;;;21.15;50.10;100421.34;12260468;19;19915;-86
2022/09/08 14:38:39;;;;;;;;;;;22.50;48.00;;;21.19;50.10;100419.19;12262480;19;19918;-87
2022/09/08 14:42:40;;;;;;;;;;;22.80;48.20;;;21.21;49.97;100414.53;12259747;19;19954;-85
2022/09/08 14:46:50;;;;;;;;;;;23.10;48.60;;;21.08;49.90;100388.44;12258007;19;20333;-87
2022/09/08 14:51:30;;;;;;;;;;;22.80;48.30;;;20.81;49.93;100338.25;12260917;19;19918;-87
2022/09/08 14:55:39;;;;;;;;;;;22.90;48.10;;;21.10;50.38;100386.47;12256474;19;19923;-86
2022/09/08 15:00:14;;;;;;;;;;;22.80;48.30;;;21.24;50.08;100403.59;12258671;19;19943;-87
2022/09/08 15:04:36;;;;;;;;;;;22.90;48.30;;;21.27;50.37;100407.75;12258262;19;20274;-88
2022/09/08 15:08:39;;;;;;;;;;;22.90;48.50;;;21.15;50.37;100386.81;12256174;19;19922;-87
2022/09/08 15:12:45;;;;;;;;;;;22.90;47.60;;;20.68;50.35;100307.66;12253996;19;19926;-86
2022/09/08 15:17:13;;;;;;;;;;;22.90;48.50;;;21.24;50.66;100392.97;12260170;19;19919;-86
2022/09/08 15:21:22;;;;;;;;;;;22.90;48.10;;;21.18;50.70;100381.16;12257493;19;19915;-86
2022/09/08 15:25:30;;;;;;;;;;;22.90;48.60;;;21.24;50.87;100387.66;12258360;19;19915;-86
2022/09/08 15:29:47;;;;;;;;;;;22.90;48.50;;;20.73;50.90;100308.03;12258468;19;19923;-86
2022/09/08 15:34:27;;;;;;;;;;;22.80;48.60;;;21.24;50.58;100389.50;12255247;19;19923;-87
2022/09/08 15:38:43;;;;;;;;;;;22.80;48.90;;;21.21;50.57;100383.50;12259008;19;19918;-87
2022/09/08 15:43:07;;;;;;;;;;;22.90;48.30;;;21.27;51.00;100382.00;12247142;19;19918;-87
2022/09/08 15:47:23;;;;;;;;;;;22.90;48.80;;;21.23;51.10;100374.56;12264871;19;19927;-88
2022/09/08 15:51:49;;;;;;;;;;;22.90;48.90;;;21.31;51.18;100378.06;12263212;19;19930;-90
2022/09/08 15:56:10;;;;;;;;;;;22.90;49.00;;;21.29;51.01;100369.41;12269561;19;19956;-89
2022/09/08 16:00:43;;;;;;;;;;;22.90;49.10;;;21.39;50.99;100380.75;12264428;19;19915;-89
2022/09/08 16:04:52;;;;;;;;;;;23.00;49.20;;;21.00;50.98;100300.81;12252835;19;19918;-91
2022/09/08 16:08:59;;;;;;;;;;;23.00;49.70;;;21.48;50.76;100372.78;12253679;19;19999;-90
2022/09/08 16:13:13;;;;;;;;;;;23.00;49.40;;;21.09;50.80;100312.25;12249253;19;19958;-91
2022/09/08 16:17:17;;;;;;;;;;;23.10;49.50;;;20.83;51.07;100270.75;12253550;19;19979;-94
2022/09/08 16:21:27;;;;;;;;;;;23.10;49.00;;;21.24;51.04;100344.34;12256253;19;19982;-89
2022/09/08 16:25:41;;;;;;;;;;;23.20;49.20;;;21.24;51.42;100344.34;12255010;19;19919;-89
2022/09/08 16:30:07;;;;;;;;;;;23.20;49.30;;;21.63;50.99;100409.19;12256021;19;19918;-92
2022/09/08 16:34:12;;;;;;;;;;;23.20;49.50;;;21.65;51.27;100411.66;12252869;19;19927;-89
2022/09/08 16:38:34;;;;;;;;;;;23.10;49.40;;;21.18;51.46;100336.03;12255625;19;19931;-88
2022/09/08 16:43:05;;;;;;;;;;;23.20;49.40;;;21.70;51.50;100413.84;12255084;19;19927;-90
2022/09/08 16:47:09;;;;;;;;;;;23.20;49.50;;;21.70;51.47;100412.00;12260140;19;19911;-89
2022/09/08 16:51:21;;;;;;;;;;;23.40;49.50;;;21.36;51.56;100364.25;12261440;19;19935;-92
2022/09/08 16:55:42;;;;;;;;;;;23.40;49.50;;;21.31;51.25;100355.97;12262796;19;19926;-89
2022/09/08 17:00:02;;;;;;;;;;;23.40;49.50;;;21.39;51.21;100356.03;12258661;19;22233;-92
2022/09/08 17:04:21;;;;;;;;;;;23.40;49.70;;;21.22;51.38;100339.16;12259811;19;19914;-89
2022/09/08 17:08:23;;;;;;;;;;;23.20;49.60;;;21.77;51.59;100425.50;12264034;19;19911;-89
2022/09/08 17:12:34;;;;;;;;;;;23.40;49.80;;;21.65;51.80;100409.00;12259759;19;20404;-92
2022/09/08 17:17:22;;;;;;;;;;;23.40;49.70;;;21.83;51.78;100424.81;12263801;19;19961;-90
2022/09/08 17:21:38;;;;;;;;;;;23.20;49.70;;;21.83;51.78;100438.13;12261834;19;19915;-89
2022/09/08 17:25:54;;;;;;;;;;;23.40;49.90;;;21.78;51.82;100424.47;12259242;19;20114;-88
2022/09/08 17:29:56;;;;;;;;;;;23.40;49.70;;;21.78;51.75;100437.78;12259373;19;19948;-90
2022/09/08 17:34:22;;;;;;;;;;;23.40;49.90;;;21.78;51.65;100433.28;12255863;19;20317;-87
2022/09/08 17:38:37;;;;;;;;;;;23.40;49.90;;;21.79;51.95;100442.06;12251864;19;20337;-87
2022/09/08 17:43:11;;;;;;;;;;;23.40;49.90;;;21.70;51.56;100440.41;12249190;19;19918;-88
2022/09/08 17:48:00;;;;;;;;;;;23.40;49.90;;;21.76;51.75;100442.41;12251402;19;19915;-88
2022/09/08 17:52:07;;;;;;;;;;;23.40;49.90;;;21.74;52.10;100439.94;12247218;19;19911;-89
2022/09/08 17:56:36;;;;;;;;;;;23.40;50.20;;;21.76;51.87;100445.06;12249839;19;20288;-87
2022/09/08 18:00:46;;;;;;;;;;;23.40;49.80;;;21.69;51.57;100442.25;12248576;19;19927;-88
2022/09/08 18:04:54;;;;;;;;;;;23.30;49.90;;;21.57;52.17;100430.25;12247903;19;19915;-87
2022/09/08 18:09:08;;;;;;;;;;;23.30;49.80;;;21.64;52.08;100444.56;12248089;19;19946;-88
2022/09/08 18:13:18;;;;;;;;;;;23.30;49.80;;;21.65;52.00;100455.00;12245968;19;19949;-88
2022/09/08 18:17:23;;;;;;;;;;;23.30;49.80;;;21.26;51.96;100403.44;12250026;19;19950;-88
2022/09/08 18:21:57;;;;;;;;;;;23.30;49.80;;;21.59;52.01;100458.34;12248972;19;20326;-87
2022/09/08 18:26:05;;;;;;;;;;;23.10;49.70;;;21.56;51.98;100463.97;12243264;19;19954;-89
2022/09/08 18:30:19;;;;;;;;;;;23.20;49.80;;;21.44;52.12;100457.28;12248853;19;19911;-87
2022/09/08 18:34:39;;;;;;;;;;;23.20;49.70;;;21.47;51.92;100472.94;12246733;19;19926;-88
2022/09/08 18:38:46;;;;;;;;;;;23.20;49.70;;;21.30;52.07;100449.91;12248102;19;19911;-88
2022/09/08 18:42:57;;;;;;;;;;;23.10;49.70;;;21.35;52.15;100468.88;12243746;19;19930;-87
2022/09/08 18:47:09;;;;;;;;;;;23.50;49.90;;;21.38;52.24;100476.53;12243570;19;20344;-87
2022/09/08 18:51:33;;;;;;;;;;;23.10;49.80;;;21.30;52.32;100471.16;12244904;19;19919;-89
2022/09/08 18:55:36;;;;;;;;;;;23.00;49.80;;;21.30;52.13;100477.31;12253409;19;19926;-90
2022/09/08 19:00:14;;;;;;;;;;;23.00;49.80;;;20.98;52.12;100446.13;12266180;19;19911;-90
2022/09/08 19:05:01;;;;;;;;;;;23.00;49.90;;;21.33;52.22;100521.31;12266359;19;19935;-89